createdAt,value
2022-09-30T00:01:25.625Z,17.10
2022-09-30T00:03:55.250Z,16.20
2022-09-30T00:06:23.432Z,14.73
2022-09-30T00:08:51.106Z,15.75
2022-09-30T00:11:21.723Z,14.15
2022-09-30T00:13:51.546Z,13.95
2022-09-30T00:16:21.139Z,14.00
2022-09-30T00:18:49.272Z,14.07
2022-09-30T00:21:18.838Z,14.55
2022-09-30T00:23:47.061Z,14.23
2022-09-30T00:26:17.269Z,14.00
2022-09-30T00:28:46.038Z,14.48
2022-09-30T00:31:15.496Z,14.88
2022-09-30T00:33:44.300Z,13.90
2022-09-30T00:36:12.454Z,15.77
2022-09-30T00:38:41.478Z,15.60
2022-09-30T00:41:09.173Z,14.45
2022-09-30T00:43:43.149Z,14.75
2022-09-30T00:46:20.374Z,15.07
2022-09-30T00:48:53.716Z,15.60
2022-09-30T00:51:28.418Z,15.57
2022-09-30T00:54:01.739Z,15.32
2022-09-30T00:56:33.764Z,14.93
2022-09-30T00:59:08.986Z,15.68
2022-09-30T01:01:39.609Z,15.35
2022-09-30T01:04:12.867Z,15.70
2022-09-30T01:06:41.419Z,14.18
2022-09-30T01:09:11.577Z,14.65
2022-09-30T01:11:39.390Z,15.65
2022-09-30T01:14:10.857Z,15.20
2022-09-30T01:16:55.651Z,15.93
2022-09-30T01:19:42.743Z,16.42
2022-09-30T01:22:27.325Z,16.75
2022-09-30T01:25:39.024Z,17.70
2022-09-30T01:28:42.481Z,18.55
2022-09-30T01:31:24.426Z,18.67
2022-09-30T01:33:58.944Z,20.65
2022-09-30T01:36:39.292Z,19.90
2022-09-30T01:39:28.362Z,21.67
2022-09-30T01:42:06.381Z,22.23
2022-09-30T01:44:44.288Z,22.98
2022-09-30T01:47:18.566Z,23.15
2022-09-30T01:49:51.445Z,21.10
2022-09-30T01:52:28.145Z,22.25
2022-09-30T01:55:03.892Z,20.20
2022-09-30T01:57:36.909Z,20.45
2022-09-30T02:00:08.460Z,21.05
2022-09-30T02:02:43.518Z,21.55
2022-09-30T02:05:17.931Z,21.42
2022-09-30T02:07:50.849Z,20.23
2022-09-30T02:10:24.533Z,19.95
2022-09-30T02:12:57.883Z,19.88
2022-09-30T02:15:32.709Z,18.42
2022-09-30T02:18:06.401Z,18.95
2022-09-30T02:20:40.087Z,18.10
2022-09-30T02:23:11.128Z,17.67
2022-09-30T02:25:43.812Z,16.83
2022-09-30T02:28:15.863Z,16.80
2022-09-30T02:30:48.858Z,15.63
2022-09-30T02:33:21.681Z,15.88
2022-09-30T02:35:53.673Z,16.45
2022-09-30T02:38:24.657Z,15.63
2022-09-30T02:40:57.144Z,15.95
2022-09-30T02:43:26.201Z,15.95
2022-09-30T02:46:06.149Z,15.75
2022-09-30T02:48:43.045Z,15.45
2022-09-30T02:51:16.753Z,15.02
2022-09-30T02:53:53.223Z,15.95
2022-09-30T02:56:25.869Z,16.65
2022-09-30T02:58:56.738Z,16.50
2022-09-30T03:01:26.454Z,17.02
2022-09-30T03:03:59.327Z,16.10
2022-09-30T03:06:27.564Z,16.55
2022-09-30T03:08:55.592Z,16.25
2022-09-30T03:11:25.712Z,16.02
2022-09-30T03:14:19.078Z,16.33
2022-09-30T03:17:04.248Z,15.73
2022-09-30T03:19:53.913Z,16.80
2022-09-30T03:22:46.598Z,17.88
2022-09-30T03:25:29.269Z,18.85
2022-09-30T03:28:08.193Z,18.65
2022-09-30T03:30:44.640Z,18.38
2022-09-30T03:33:21.147Z,18.58
2022-09-30T03:35:59.543Z,17.80
2022-09-30T03:38:39.453Z,17.35
2022-09-30T03:41:13.745Z,17.38
2022-09-30T03:43:46.480Z,17.13
2022-09-30T03:46:19.261Z,17.10
2022-09-30T03:48:50.697Z,17.55
2022-09-30T03:51:20.207Z,16.73
2022-09-30T03:53:48.196Z,17.90
2022-09-30T03:56:16.132Z,17.60
2022-09-30T03:58:45.362Z,17.90
2022-09-30T04:01:21.286Z,16.20
2022-09-30T04:03:52.248Z,16.42
2022-09-30T04:06:23.422Z,16.38
2022-09-30T04:08:51.448Z,15.82
2022-09-30T04:11:19.130Z,15.20
2022-09-30T04:13:46.805Z,15.82
2022-09-30T04:16:14.536Z,17.77
2022-09-30T04:18:42.297Z,16.00
2022-09-30T04:21:11.707Z,15.23
2022-09-30T04:23:42.514Z,15.85
2022-09-30T04:26:12.889Z,15.73
2022-09-30T04:28:40.609Z,15.80
2022-09-30T04:31:08.820Z,14.43
2022-09-30T04:33:36.502Z,14.95
2022-09-30T04:36:04.350Z,14.88
2022-09-30T04:38:32.227Z,14.30
2022-09-30T04:41:04.012Z,15.73
2022-09-30T04:43:32.150Z,15.40
2022-09-30T04:46:00.027Z,14.80
2022-09-30T04:48:28.813Z,14.65
2022-09-30T04:50:56.481Z,14.57
2022-09-30T04:53:24.152Z,15.43
2022-09-30T04:55:51.884Z,15.00
2022-09-30T04:58:20.938Z,15.45
2022-09-30T05:00:48.650Z,14.75
2022-09-30T05:03:16.402Z,16.83
2022-09-30T05:05:45.740Z,17.48
2022-09-30T05:08:13.441Z,16.27
2022-09-30T05:10:41.156Z,17.73
2022-09-30T05:13:08.818Z,17.17
2022-09-30T05:15:37.872Z,17.75
2022-09-30T05:18:05.991Z,17.30
2022-09-30T05:20:33.826Z,17.02
2022-09-30T05:23:01.502Z,16.90
2022-09-30T05:25:29.151Z,17.25
2022-09-30T05:27:56.819Z,18.33
2022-09-30T05:30:50.863Z,17.63
2022-09-30T05:33:19.927Z,18.42
2022-09-30T05:35:47.747Z,19.75
2022-09-30T05:38:15.435Z,19.88
2022-09-30T05:40:43.173Z,21.75
2022-09-30T05:43:11.462Z,19.23
2022-09-30T05:45:40.279Z,19.13
2022-09-30T05:48:08.029Z,18.88
2022-09-30T05:50:37.634Z,18.63
2022-09-30T05:53:05.310Z,19.20
2022-09-30T05:55:37.060Z,19.23
2022-09-30T05:58:06.840Z,16.98
2022-09-30T06:00:34.504Z,18.70
2022-09-30T06:03:02.231Z,18.85
2022-09-30T06:05:29.942Z,19.02
2022-09-30T06:07:59.038Z,18.08
2022-09-30T06:10:26.764Z,16.90
2022-09-30T06:12:54.409Z,17.70
2022-09-30T06:15:22.186Z,18.33
2022-09-30T06:17:53.501Z,17.63
2022-09-30T06:20:21.365Z,18.52
2022-09-30T06:22:49.269Z,18.45
2022-09-30T06:25:18.757Z,17.90
2022-09-30T06:27:47.490Z,17.08
2022-09-30T06:30:15.796Z,16.70
2022-09-30T06:32:43.981Z,16.20
2022-09-30T06:35:11.979Z,16.15
2022-09-30T06:37:39.777Z,15.80
2022-09-30T06:40:08.769Z,17.42
2022-09-30T06:42:38.072Z,16.05
2022-09-30T06:45:06.727Z,16.65
2022-09-30T06:47:34.458Z,18.55
2022-09-30T06:50:03.028Z,15.93
2022-09-30T06:52:30.740Z,15.85
2022-09-30T06:54:58.472Z,19.38
2022-09-30T06:57:27.778Z,16.33
2022-09-30T06:59:57.977Z,17.00
2022-09-30T07:02:25.679Z,16.77
2022-09-30T07:04:53.360Z,16.50
2022-09-30T07:07:22.228Z,16.13
2022-09-30T07:09:50.037Z,16.27
2022-09-30T07:12:18.068Z,16.67
2022-09-30T07:14:46.127Z,16.95
2022-09-30T07:17:15.252Z,17.33
2022-09-30T07:19:42.950Z,17.48
2022-09-30T07:22:32.457Z,15.75
2022-09-30T07:25:02.093Z,16.15
2022-09-30T07:27:32.829Z,16.08
2022-09-30T07:30:10.190Z,16.48
2022-09-30T07:32:41.789Z,15.73
2022-09-30T07:35:09.846Z,14.93
2022-09-30T07:37:37.550Z,15.40
2022-09-30T07:40:06.953Z,23.85
2022-09-30T07:42:38.622Z,15.55
2022-09-30T07:45:07.269Z,14.98
2022-09-30T07:47:34.947Z,14.43
2022-09-30T07:50:04.289Z,13.40
2022-09-30T07:52:32.199Z,14.60
2022-09-30T07:54:59.884Z,13.68
2022-09-30T07:57:27.536Z,14.50
2022-09-30T07:59:55.233Z,13.13
2022-09-30T08:02:24.776Z,14.43
2022-09-30T08:04:52.545Z,13.73
2022-09-30T08:07:21.585Z,13.20
2022-09-30T08:09:49.375Z,13.63
2022-09-30T08:12:17.184Z,17.58
2022-09-30T08:14:45.481Z,13.93
2022-09-30T08:17:13.585Z,11.88
2022-09-30T08:19:44.106Z,11.70
2022-09-30T08:22:13.786Z,12.82
2022-09-30T08:24:42.860Z,16.35
2022-09-30T08:27:10.569Z,12.68
2022-09-30T08:29:55.901Z,12.35
2022-09-30T08:32:25.235Z,13.02
2022-09-30T08:34:52.901Z,13.23
2022-09-30T08:37:20.602Z,13.30
2022-09-30T08:39:49.616Z,18.10
2022-09-30T08:42:39.757Z,16.52
2022-09-30T08:45:22.703Z,17.40
2022-09-30T08:47:58.029Z,12.48
2022-09-30T08:50:31.542Z,12.35
2022-09-30T08:53:02.560Z,12.07
2022-09-30T08:55:39.616Z,10.68
2022-09-30T08:58:12.495Z,10.93
2022-09-30T09:00:42.872Z,11.15
2022-09-30T09:03:14.181Z,9.82
2022-09-30T09:05:52.797Z,11.13
2022-09-30T09:08:36.057Z,11.30
2022-09-30T09:11:15.303Z,11.27
2022-09-30T09:13:51.234Z,10.60
2022-09-30T09:16:26.174Z,11.02
2022-09-30T09:19:02.912Z,11.25
2022-09-30T09:21:40.436Z,10.32
2022-09-30T09:24:21.941Z,14.57
2022-09-30T09:26:53.833Z,11.02
2022-09-30T09:29:39.647Z,11.15
2022-09-30T09:32:14.263Z,10.45
2022-09-30T09:34:42.865Z,10.45
2022-09-30T09:37:20.039Z,9.73
2022-09-30T09:40:04.182Z,9.70
2022-09-30T09:42:50.333Z,9.38
2022-09-30T09:45:28.533Z,8.82
2022-09-30T09:47:57.189Z,8.85
2022-09-30T09:50:35.742Z,7.78
2022-09-30T09:53:27.004Z,8.10
2022-09-30T09:55:59.267Z,7.50
2022-09-30T09:58:28.399Z,7.53
2022-09-30T10:01:32.131Z,7.40
2022-09-30T10:04:16.641Z,7.47
2022-09-30T10:06:50.568Z,7.20
2022-09-30T10:09:25.770Z,6.35
2022-09-30T10:11:53.892Z,6.40
2022-09-30T10:14:23.369Z,5.65
2022-09-30T10:16:51.247Z,5.53
2022-09-30T10:19:22.460Z,5.85
2022-09-30T10:21:51.905Z,5.00
2022-09-30T10:24:29.405Z,5.45
2022-09-30T10:26:57.678Z,5.35
2022-09-30T10:29:29.732Z,4.63
2022-09-30T10:34:30.721Z,5.05
2022-09-30T10:37:00.787Z,4.72
2022-09-30T10:39:30.382Z,4.70
2022-09-30T10:42:03.200Z,4.38
2022-09-30T10:44:32.444Z,4.40
2022-09-30T10:47:03.433Z,4.25
2022-09-30T10:49:36.830Z,3.83
2022-09-30T10:52:05.079Z,3.60
2022-09-30T10:54:47.646Z,3.95
2022-09-30T10:57:16.783Z,3.80
2022-09-30T10:59:48.005Z,3.47
2022-09-30T11:02:30.835Z,3.80
2022-09-30T11:05:08.872Z,3.40
2022-09-30T11:07:43.698Z,3.65
2022-09-30T11:10:29.387Z,3.80
2022-09-30T11:13:07.923Z,3.70
2022-09-30T11:15:44.091Z,3.33
2022-09-30T11:18:18.750Z,3.08
2022-09-30T11:20:52.512Z,2.80
2022-09-30T11:23:27.481Z,2.45
2022-09-30T11:26:01.921Z,2.47
2022-09-30T11:29:00.223Z,2.53
2022-09-30T11:31:37.193Z,2.80
2022-09-30T11:34:21.421Z,3.28
2022-09-30T11:36:58.606Z,2.72
2022-09-30T11:39:43.475Z,3.03
2022-09-30T11:42:20.139Z,2.47
2022-09-30T11:44:48.170Z,2.50
2022-09-30T11:47:35.138Z,1.90
2022-09-30T11:50:25.688Z,1.95
2022-09-30T11:53:03.860Z,1.50
2022-09-30T11:55:44.682Z,1.30
2022-09-30T11:58:39.790Z,1.50
2022-09-30T12:01:15.249Z,1.40
2022-09-30T12:03:50.335Z,2.03
2022-09-30T12:06:35.576Z,1.80
2022-09-30T12:09:17.670Z,1.80
2022-09-30T12:11:50.818Z,1.85
2022-09-30T12:14:27.263Z,2.53
2022-09-30T12:16:57.632Z,2.03
2022-09-30T12:19:33.889Z,2.00
2022-09-30T12:22:06.530Z,2.00
2022-09-30T12:24:38.199Z,2.20
2022-09-30T12:27:13.866Z,2.17
2022-09-30T12:30:05.643Z,2.20
2022-09-30T12:33:10.732Z,2.20
2022-09-30T12:36:06.736Z,1.95
2022-09-30T12:38:54.804Z,2.30
2022-09-30T12:41:36.370Z,2.00
2022-09-30T12:44:29.759Z,2.30
2022-09-30T12:47:18.450Z,1.75
2022-09-30T12:49:47.836Z,1.80
2022-09-30T12:52:20.788Z,1.83
2022-09-30T12:54:53.089Z,1.67
2022-09-30T12:57:26.511Z,1.60
2022-09-30T12:59:56.884Z,1.70
2022-09-30T13:02:35.418Z,1.73
2022-09-30T13:05:40.409Z,1.35
2022-09-30T13:08:37.790Z,2.03
2022-09-30T13:11:07.864Z,1.60
2022-09-30T13:13:37.062Z,1.30
2022-09-30T13:16:06.663Z,1.70
2022-09-30T13:19:00.845Z,1.40
2022-09-30T13:21:32.139Z,1.48
2022-09-30T13:24:01.799Z,1.45
2022-09-30T13:26:49.271Z,1.50
2022-09-30T13:29:39.202Z,1.60
2022-09-30T13:32:09.295Z,1.20
2022-09-30T13:34:55.003Z,1.80
2022-09-30T13:37:39.044Z,1.50
2022-09-30T13:40:23.140Z,1.73
2022-09-30T13:42:58.313Z,2.17
2022-09-30T13:45:39.420Z,1.60
2022-09-30T13:48:13.011Z,1.45
2022-09-30T13:50:52.576Z,1.50
2022-09-30T13:53:30.574Z,1.77
2022-09-30T13:56:01.770Z,1.30
2022-09-30T13:58:47.233Z,1.40
2022-09-30T14:01:32.361Z,1.60
2022-09-30T14:04:17.178Z,1.38
2022-09-30T14:06:56.666Z,2.00
2022-09-30T14:09:48.473Z,1.52
2022-09-30T14:12:34.148Z,1.35
2022-09-30T14:15:45.034Z,5.05
2022-09-30T14:18:39.137Z,1.70
2022-09-30T14:21:26.442Z,1.42
2022-09-30T14:24:00.212Z,1.40
2022-09-30T14:26:45.749Z,1.35
2022-09-30T14:29:23.614Z,1.60
2022-09-30T14:31:51.467Z,1.60
2022-09-30T14:34:22.830Z,1.30
2022-09-30T14:36:53.410Z,1.13
2022-09-30T14:39:23.978Z,1.70
2022-09-30T14:41:54.707Z,1.45
2022-09-30T14:44:26.413Z,1.48
2022-09-30T14:47:00.860Z,1.63
2022-09-30T14:49:34.460Z,1.60
2022-09-30T14:52:03.843Z,1.40
2022-09-30T14:54:33.158Z,1.35
2022-09-30T14:57:02.914Z,1.45
2022-09-30T14:59:34.599Z,1.30
2022-09-30T15:02:05.114Z,1.40
2022-09-30T15:04:36.344Z,1.27
2022-09-30T15:07:07.172Z,1.42
2022-09-30T15:09:37.728Z,1.10
2022-09-30T15:12:07.144Z,1.20
2022-09-30T15:14:47.260Z,1.25
2022-09-30T15:17:20.716Z,3.25
2022-09-30T15:20:09.999Z,1.80
2022-09-30T15:22:37.917Z,1.35
2022-09-30T15:25:06.657Z,1.52
2022-09-30T15:27:36.889Z,1.17
2022-09-30T15:30:24.807Z,1.55
2022-09-30T15:32:59.595Z,1.30
2022-09-30T15:35:27.738Z,1.70
2022-09-30T15:38:05.967Z,1.27
2022-09-30T15:40:50.378Z,1.90
2022-09-30T15:43:32.859Z,1.60
2022-09-30T15:46:18.144Z,1.33
2022-09-30T15:48:46.928Z,0.88
2022-09-30T15:51:37.469Z,0.98
2022-09-30T15:54:31.866Z,1.30
2022-09-30T15:57:04.513Z,0.98
2022-09-30T16:00:00.178Z,0.82
2022-09-30T16:02:31.553Z,0.90
2022-09-30T16:05:01.931Z,0.93
2022-09-30T16:07:31.988Z,0.80
2022-09-30T16:10:00.083Z,1.10
2022-09-30T16:12:32.198Z,0.90
2022-09-30T16:17:33.625Z,1.00
2022-09-30T16:20:05.668Z,0.95
2022-09-30T16:22:51.463Z,0.98
2022-09-30T16:25:26.422Z,0.98
2022-09-30T16:27:57.750Z,1.00
2022-09-30T16:30:26.121Z,0.90
2022-09-30T16:32:59.351Z,1.15
2022-09-30T16:35:29.217Z,1.02
2022-09-30T16:38:01.690Z,1.00
2022-09-30T16:40:31.276Z,1.30
2022-09-30T16:43:01.308Z,0.90
2022-09-30T16:45:31.145Z,1.05
2022-09-30T16:48:02.413Z,1.10
2022-09-30T16:50:34.669Z,0.97
2022-09-30T16:53:02.519Z,0.98
2022-09-30T16:55:30.765Z,1.00
2022-09-30T16:57:59.557Z,1.13
2022-09-30T17:00:29.113Z,1.30
2022-09-30T17:02:57.023Z,1.40
2022-09-30T17:05:27.536Z,1.42
2022-09-30T17:07:57.993Z,1.40
2022-09-30T17:10:28.957Z,1.20
2022-09-30T17:13:00.259Z,1.52
2022-09-30T17:15:28.817Z,1.20
2022-09-30T17:17:56.921Z,0.95
2022-09-30T17:20:26.500Z,1.10
2022-09-30T17:22:54.267Z,1.48
2022-09-30T17:25:21.981Z,1.20
2022-09-30T17:27:50.913Z,1.15
2022-09-30T17:30:19.082Z,1.20
2022-09-30T17:32:47.238Z,1.10
2022-09-30T17:35:15.222Z,1.30
2022-09-30T17:37:46.429Z,1.08
2022-09-30T17:40:32.442Z,0.98
2022-09-30T17:43:16.928Z,1.25
2022-09-30T17:45:46.325Z,0.93
2022-09-30T17:48:16.183Z,1.10
2022-09-30T17:50:45.624Z,0.98
2022-09-30T17:53:16.972Z,1.00
2022-09-30T17:55:47.110Z,1.10
2022-09-30T17:58:15.535Z,1.10
2022-09-30T18:00:43.573Z,1.00
2022-09-30T18:03:12.097Z,0.95
2022-09-30T18:05:39.791Z,1.10
2022-09-30T18:08:07.483Z,1.40
2022-09-30T18:10:38.591Z,1.13
2022-09-30T18:13:06.602Z,1.25
2022-09-30T18:15:34.264Z,1.10
2022-09-30T18:18:01.943Z,1.35
2022-09-30T18:20:29.583Z,1.10
2022-09-30T18:22:57.265Z,1.10
2022-09-30T18:25:25.144Z,1.10
2022-09-30T18:27:57.651Z,1.02
2022-09-30T18:30:25.418Z,1.50
2022-09-30T18:32:54.984Z,1.10
2022-09-30T18:35:24.975Z,1.35
2022-09-30T18:37:53.859Z,0.98
2022-09-30T18:40:23.183Z,1.33
2022-09-30T18:42:58.352Z,1.35
2022-09-30T18:45:26.752Z,1.13
2022-09-30T18:47:56.437Z,1.25
2022-09-30T18:50:24.803Z,1.13
2022-09-30T18:52:53.334Z,1.00
2022-09-30T18:55:21.545Z,1.13
2022-09-30T18:57:50.194Z,1.00
2022-09-30T19:00:20.529Z,1.45
2022-09-30T19:02:48.333Z,1.48
2022-09-30T19:05:17.876Z,1.50
2022-09-30T19:07:45.620Z,1.52
2022-09-30T19:10:13.540Z,1.45
2022-09-30T19:12:44.446Z,1.48
2022-09-30T19:15:15.728Z,2.08
2022-09-30T19:17:45.431Z,1.60
2022-09-30T19:20:15.105Z,1.80
2022-09-30T19:22:42.845Z,1.83
2022-09-30T19:25:12.328Z,1.73
2022-09-30T19:27:41.223Z,1.90
2022-09-30T19:30:11.228Z,1.77
2022-09-30T19:32:39.337Z,1.65
2022-09-30T19:35:10.407Z,2.00
2022-09-30T19:37:38.292Z,1.90
2022-09-30T19:40:19.795Z,2.28
2022-09-30T19:42:49.681Z,2.50
2022-09-30T19:45:18.873Z,3.15
2022-09-30T19:47:47.732Z,2.83
2022-09-30T19:50:16.945Z,2.38
2022-09-30T19:52:53.912Z,2.63
2022-09-30T19:55:24.233Z,2.85
2022-09-30T19:57:52.016Z,2.90
2022-09-30T20:00:19.772Z,3.22
2022-09-30T20:02:47.426Z,3.08
2022-09-30T20:05:18.301Z,3.03
2022-09-30T20:07:45.974Z,3.45
2022-09-30T20:10:14.131Z,3.50
2022-09-30T20:12:42.608Z,4.20
2022-09-30T20:15:28.528Z,4.20
2022-09-30T20:17:56.217Z,5.05
2022-09-30T20:20:38.394Z,4.50
2022-09-30T20:23:06.121Z,4.57
2022-09-30T20:25:35.364Z,4.47
2022-09-30T20:28:04.041Z,4.80
2022-09-30T20:30:32.508Z,4.90
2022-09-30T20:33:01.768Z,5.35
2022-09-30T20:35:30.819Z,4.80
2022-09-30T20:37:58.515Z,4.88
2022-09-30T20:40:26.273Z,4.68
2022-09-30T20:42:56.979Z,5.07
2022-09-30T20:45:28.047Z,4.85
2022-09-30T20:47:56.724Z,5.18
2022-09-30T20:50:35.817Z,6.20
2022-09-30T20:53:09.755Z,5.88
2022-09-30T20:55:39.569Z,5.47
2022-09-30T20:58:09.266Z,6.60
2022-09-30T21:00:39.545Z,6.72
2022-09-30T21:03:09.191Z,6.70
2022-09-30T21:05:36.978Z,6.60
2022-09-30T21:08:07.267Z,7.53
2022-09-30T21:10:38.586Z,7.57
2022-09-30T21:13:11.162Z,7.40
2022-09-30T21:15:39.440Z,8.82
2022-09-30T21:18:07.432Z,7.00
2022-09-30T21:20:35.416Z,8.25
2022-09-30T21:23:03.831Z,7.57
2022-09-30T21:25:32.002Z,7.95
2022-09-30T21:28:01.372Z,8.20
2022-09-30T21:30:29.179Z,8.13
2022-09-30T21:32:56.897Z,8.63
2022-09-30T21:35:24.567Z,9.20
2022-09-30T21:37:52.278Z,8.57
2022-09-30T21:40:20.014Z,8.57
2022-09-30T21:42:47.651Z,8.70
2022-09-30T21:45:16.962Z,9.30
2022-09-30T21:47:44.624Z,9.68
2022-09-30T21:50:12.287Z,10.40
2022-09-30T21:52:39.924Z,9.15
2022-09-30T21:55:08.149Z,9.82
2022-09-30T21:57:36.010Z,9.88
2022-09-30T22:00:04.595Z,9.20
2022-09-30T22:02:33.735Z,9.90
2022-09-30T22:05:01.392Z,8.43
2022-09-30T22:07:29.194Z,7.85
2022-09-30T22:09:56.878Z,8.40
2022-09-30T22:12:24.550Z,8.55
2022-09-30T22:14:52.189Z,8.60
2022-09-30T22:17:19.856Z,10.02
2022-09-30T22:19:48.911Z,10.00
2022-09-30T22:22:16.570Z,9.40
2022-09-30T22:24:44.218Z,9.85
2022-09-30T22:27:12.846Z,9.65
2022-09-30T22:29:40.546Z,9.30
2022-09-30T22:32:08.280Z,8.50
2022-09-30T22:34:53.661Z,8.63
2022-09-30T22:37:40.206Z,10.57
2022-09-30T22:40:08.416Z,9.88
2022-09-30T22:42:36.505Z,11.32
2022-09-30T22:45:04.876Z,11.30
2022-09-30T22:47:32.545Z,11.90
2022-09-30T22:50:00.776Z,12.43
2022-09-30T22:52:30.008Z,13.30
2022-09-30T22:54:58.093Z,13.05
2022-09-30T22:57:25.757Z,13.85
2022-09-30T22:59:55.109Z,14.90
2022-09-30T23:02:22.811Z,12.73
2022-09-30T23:04:51.437Z,13.55
2022-09-30T23:07:19.139Z,14.85
2022-09-30T23:09:48.159Z,15.35
2022-09-30T23:12:15.820Z,15.40
2022-09-30T23:14:43.493Z,16.00
2022-09-30T23:17:13.007Z,15.70
2022-09-30T23:19:40.783Z,16.58
2022-09-30T23:22:08.462Z,17.85
2022-09-30T23:24:36.102Z,16.25
2022-09-30T23:27:05.284Z,15.82
2022-09-30T23:29:32.950Z,17.15
2022-09-30T23:32:00.768Z,16.38
2022-09-30T23:34:29.048Z,15.05
2022-09-30T23:36:56.711Z,15.65
2022-09-30T23:39:24.381Z,15.13
2022-09-30T23:41:52.242Z,15.65
2022-09-30T23:44:21.313Z,15.73
2022-09-30T23:47:06.995Z,16.08
2022-09-30T23:49:36.106Z,16.67
2022-09-30T23:52:06.175Z,16.05
2022-09-30T23:54:35.850Z,15.60
2022-09-30T23:57:04.103Z,14.95
2022-09-30T23:59:33.210Z,14.13
